< < Back
Terminal Aerodrome Forecast


Current Version              Previous Versions:   1  2  3  4  5  6  7  8  9  

Terminal Aerodrome Forecast

769
FTUS42 KGSP 012330
TAFHKY
TAF
KHKY 012330Z 0200/0224 36006KT P6SM SKC
     FM021200 03004KT P6SM SKC
     FM021600 08004KT P6SM FEW070
     FM022000 12003KT P6SM FEW070=

Latest METAR

800
SAUS70 KWBC 022000 RRK
MTRHKY
METAR KHKY 021953Z AUTO 21005KT 10SM SCT075 33/12 A2996 RMK AO2 SLP122
T03280122


USA.gov is the U.S. government's official web portal to all federal, state and local government web resources and services.